Time;durP1;ratioP1;P1;durP2;ratioP2;P2;SDS_P1;SDS_P2;PMS_P1;PMS_P2;Temp;Humidity;BMP_temperature;BMP_pressure;BME280_temperature;BME280_humidity;BME280_pressure;Samples;Min_cycle;Max_cycle;Signal;HPM_P1;HPM_P2
2023/06/25 00:01:31;;;;;;;29.10;27.27;;;;;;;;;;5099882;28;20430;-80
2023/06/25 00:03:58;;;;;;;28.43;26.53;;;;;;;;;;5100370;28;20426;-81
2023/06/25 00:06:25;;;;;;;30.00;28.00;;;;;;;;;;5099491;28;20444;-80
2023/06/25 00:08:52;;;;;;;28.50;26.70;;;;;;;;;;5100194;28;20457;-79
2023/06/25 00:11:19;;;;;;;27.93;26.20;;;;;;;;;;5099346;28;20529;-79
2023/06/25 00:13:48;;;;;;;29.17;27.20;;;;;;;;;;5099846;28;20467;-79
2023/06/25 00:16:15;;;;;;;30.27;28.27;;;;;;;;;;5099066;28;20448;-80
2023/06/25 00:18:42;;;;;;;28.77;27.00;;;;;;;;;;5098229;28;20494;-78
2023/06/25 00:21:09;;;;;;;27.63;25.70;;;;;;;;;;5097191;28;20461;-79
2023/06/25 00:23:36;;;;;;;28.10;26.00;;;;;;;;;;5097227;28;20846;-78
2023/06/25 00:26:03;;;;;;;29.23;27.33;;;;;;;;;;5096847;28;20445;-78
2023/06/25 00:28:30;;;;;;;28.70;26.73;;;;;;;;;;5096201;28;20436;-78
2023/06/25 00:30:58;;;;;;;27.87;26.13;;;;;;;;;;5096805;28;20447;-78
2023/06/25 00:33:25;;;;;;;27.63;25.90;;;;;;;;;;5096539;28;20892;-78
2023/06/25 00:36:06;;;;;;;29.00;27.20;;;;;;;;;;5096542;28;20452;-78
2023/06/25 00:38:33;;;;;;;27.53;25.70;;;;;;;;;;5097020;28;20896;-78
2023/06/25 00:41:00;;;;;;;26.87;25.27;;;;;;;;;;5096511;28;20583;-78
2023/06/25 00:43:27;;;;;;;27.60;25.80;;;;;;;;;;5097009;28;20445;-78
2023/06/25 00:45:54;;;;;;;27.67;25.90;;;;;;;;;;5096170;28;20441;-78
2023/06/25 00:48:22;;;;;;;26.70;25.00;;;;;;;;;;5096800;28;20450;-78
2023/06/25 00:50:50;;;;;;;27.50;25.80;;;;;;;;;;5096082;28;20484;-79
2023/06/25 00:53:17;;;;;;;26.60;25.00;;;;;;;;;;5096496;28;21004;-78
2023/06/25 00:55:50;;;;;;;27.73;26.03;;;;;;;;;;5113167;28;20431;-79
2023/06/25 00:58:20;;;;;;;25.80;24.30;;;;;;;;;;5117961;28;20427;-78
2023/06/25 01:00:47;;;;;;;26.07;24.47;;;;;;;;;;5119090;28;20439;-79
2023/06/25 01:03:17;;;;;;;27.27;25.60;;;;;;;;;;5101044;28;20433;-78
2023/06/25 01:05:48;;;;;;;27.80;26.00;;;;;;;;;;5096341;28;20423;-78
2023/06/25 01:08:16;;;;;;;27.37;25.43;;;;;;;;;;5097269;28;20408;-78
2023/06/25 01:10:44;;;;;;;27.93;26.13;;;;;;;;;;5096361;28;20538;-78
2023/06/25 01:13:11;;;;;;;29.20;27.20;;;;;;;;;;5096198;28;20572;-78
2023/06/25 01:15:39;;;;;;;27.17;25.57;;;;;;;;;;5096154;28;20487;-79
2023/06/25 01:18:06;;;;;;;28.20;26.40;;;;;;;;;;5096885;28;20515;-78
2023/06/25 01:20:38;;;;;;;26.97;25.37;;;;;;;;;;5096011;28;20447;-78
2023/06/25 01:23:06;;;;;;;26.20;24.70;;;;;;;;;;5094987;28;20471;-78
2023/06/25 01:25:33;;;;;;;27.30;25.53;;;;;;;;;;5094987;28;20479;-79
2023/06/25 01:28:00;;;;;;;27.70;25.90;;;;;;;;;;5096283;28;20468;-78
2023/06/25 01:30:31;;;;;;;27.37;25.57;;;;;;;;;;5095769;28;20968;-78
2023/06/25 01:32:58;;;;;;;27.00;25.20;;;;;;;;;;5096338;28;20470;-78
2023/06/25 01:35:26;;;;;;;27.50;25.80;;;;;;;;;;5096465;28;20479;-78
2023/06/25 01:37:53;;;;;;;27.03;25.37;;;;;;;;;;5095960;28;20457;-78
2023/06/25 01:40:21;;;;;;;27.60;25.77;;;;;;;;;;5095201;28;20971;-78
2023/06/25 01:42:48;;;;;;;27.17;25.57;;;;;;;;;;5095915;28;20416;-78
2023/06/25 01:45:15;;;;;;;27.67;25.97;;;;;;;;;;5096445;28;20435;-79
2023/06/25 01:47:42;;;;;;;26.47;24.70;;;;;;;;;;5099509;28;20485;-78
2023/06/25 01:50:09;;;;;;;26.43;24.80;;;;;;;;;;5100425;28;20518;-78
2023/06/25 01:52:36;;;;;;;26.23;24.73;;;;;;;;;;5097867;28;20457;-78
2023/06/25 01:55:03;;;;;;;26.67;24.97;;;;;;;;;;5095762;28;20419;-79
2023/06/25 01:57:32;;;;;;;26.87;25.23;;;;;;;;;;5095174;28;20448;-77
2023/06/25 01:59:59;;;;;;;27.10;25.43;;;;;;;;;;5095667;28;20444;-78
2023/06/25 02:02:26;;;;;;;26.23;24.73;;;;;;;;;;5095358;28;20473;-78
2023/06/25 02:04:52;;;;;;;26.40;24.80;;;;;;;;;;5095255;28;20448;-78
2023/06/25 02:07:20;;;;;;;27.27;25.67;;;;;;;;;;5093666;28;20493;-78
2023/06/25 02:09:47;;;;;;;28.13;26.37;;;;;;;;;;5094549;28;20723;-77
2023/06/25 02:12:13;;;;;;;25.93;24.33;;;;;;;;;;5094894;28;20415;-78
2023/06/25 02:14:42;;;;;;;27.77;25.90;;;;;;;;;;5095212;28;20868;-78
2023/06/25 02:17:09;;;;;;;26.87;25.30;;;;;;;;;;5094230;28;20481;-77
2023/06/25 02:19:36;;;;;;;27.13;25.43;;;;;;;;;;5094966;28;20507;-78
2023/06/25 02:22:03;;;;;;;27.03;25.43;;;;;;;;;;5094368;28;20464;-78
2023/06/25 02:24:30;;;;;;;27.27;25.60;;;;;;;;;;5094733;28;20419;-78
2023/06/25 02:26:58;;;;;;;26.37;24.77;;;;;;;;;;5094282;28;20484;-78
2023/06/25 02:29:25;;;;;;;27.03;25.13;;;;;;;;;;5093889;28;20527;-79
2023/06/25 02:31:53;;;;;;;26.87;25.17;;;;;;;;;;5093836;28;20829;-79
2023/06/25 02:34:20;;;;;;;25.93;24.33;;;;;;;;;;5094569;28;20489;-78
2023/06/25 02:36:48;;;;;;;26.30;24.70;;;;;;;;;;5093266;28;20420;-79
2023/06/25 02:39:15;;;;;;;27.80;26.00;;;;;;;;;;5094355;28;20439;-78
2023/06/25 02:41:42;;;;;;;27.53;25.83;;;;;;;;;;5093183;28;20455;-78
2023/06/25 02:44:09;;;;;;;27.83;26.00;;;;;;;;;;5094255;28;20415;-78
2023/06/25 02:46:36;;;;;;;28.30;26.30;;;;;;;;;;5094779;28;20490;-80
2023/06/25 02:49:04;;;;;;;26.20;24.60;;;;;;;;;;5093973;28;20433;-78
2023/06/25 02:51:31;;;;;;;28.37;26.57;;;;;;;;;;5093481;28;20452;-77
2023/06/25 02:53:58;;;;;;;27.10;25.30;;;;;;;;;;5093569;28;20448;-78
2023/06/25 02:56:25;;;;;;;26.77;25.17;;;;;;;;;;5093277;28;20911;-78
2023/06/25 02:58:52;;;;;;;26.83;24.77;;;;;;;;;;5093794;28;20416;-78
2023/06/25 03:01:19;;;;;;;27.23;25.40;;;;;;;;;;5093935;28;20448;-78
2023/06/25 03:03:46;;;;;;;26.97;25.27;;;;;;;;;;5094160;28;20453;-78
2023/06/25 03:06:15;;;;;;;26.60;25.10;;;;;;;;;;5094047;28;20916;-78
2023/06/25 03:08:42;;;;;;;26.03;24.43;;;;;;;;;;5094319;28;20452;-80
2023/06/25 03:11:09;;;;;;;25.97;24.37;;;;;;;;;;5094961;28;20505;-79
2023/06/25 03:13:36;;;;;;;26.77;24.70;;;;;;;;;;5095514;28;20455;-78
2023/06/25 03:16:03;;;;;;;24.87;23.47;;;;;;;;;;5094677;28;20857;-78
2023/06/25 03:18:29;;;;;;;26.40;24.70;;;;;;;;;;5096001;28;20431;-78
2023/06/25 03:20:56;;;;;;;26.27;24.70;;;;;;;;;;5094907;28;20494;-79
2023/06/25 03:23:25;;;;;;;26.70;25.10;;;;;;;;;;5095835;28;20477;-78
2023/06/25 03:25:52;;;;;;;27.57;25.87;;;;;;;;;;5094560;28;20497;-78
2023/06/25 03:28:19;;;;;;;27.67;25.90;;;;;;;;;;5093496;28;20435;-79
2023/06/25 03:30:47;;;;;;;27.30;25.70;;;;;;;;;;5094146;28;20451;-79
2023/06/25 03:33:15;;;;;;;27.30;25.70;;;;;;;;;;5094435;28;20456;-79
2023/06/25 03:35:42;;;;;;;26.80;25.20;;;;;;;;;;5093820;28;20419;-79
2023/06/25 03:38:10;;;;;;;26.63;25.03;;;;;;;;;;5094124;28;20427;-79
2023/06/25 03:40:40;;;;;;;26.37;24.80;;;;;;;;;;5093576;28;20455;-79
2023/06/25 03:43:07;;;;;;;26.80;25.20;;;;;;;;;;5094392;28;20829;-79
2023/06/25 03:45:34;;;;;;;26.40;24.70;;;;;;;;;;5093912;28;20420;-79
2023/06/25 03:48:01;;;;;;;27.17;25.13;;;;;;;;;;5094491;28;20453;-80
2023/06/25 03:50:28;;;;;;;26.30;24.80;;;;;;;;;;5093322;28;20985;-79
2023/06/25 03:52:55;;;;;;;26.30;24.60;;;;;;;;;;5094491;28;20448;-79
2023/06/25 03:55:22;;;;;;;28.70;26.80;;;;;;;;;;5094085;28;20488;-78
2023/06/25 03:57:50;;;;;;;28.33;26.63;;;;;;;;;;5093823;28;20441;-79
2023/06/25 04:00:18;;;;;;;26.93;25.10;;;;;;;;;;5094494;28;20461;-79
2023/06/25 04:02:45;;;;;;;26.83;25.23;;;;;;;;;;5094348;28;20427;-80
2023/06/25 04:05:12;;;;;;;27.93;26.03;;;;;;;;;;5093826;28;20812;-79
2023/06/25 04:07:39;;;;;;;28.10;26.20;;;;;;;;;;5093507;28;20460;-79
2023/06/25 04:10:06;;;;;;;27.00;25.30;;;;;;;;;;5093600;28;20455;-79
2023/06/25 04:12:33;;;;;;;28.37;26.63;;;;;;;;;;5094008;28;20445;-80
2023/06/25 04:15:01;;;;;;;26.87;25.33;;;;;;;;;;5094110;28;20480;-80
2023/06/25 04:17:28;;;;;;;26.47;24.97;;;;;;;;;;5093266;28;20461;-80
2023/06/25 04:19:55;;;;;;;27.73;26.00;;;;;;;;;;5094482;28;20500;-79
2023/06/25 04:22:22;;;;;;;26.70;25.13;;;;;;;;;;5093840;28;20514;-79
2023/06/25 04:24:49;;;;;;;24.83;23.43;;;;;;;;;;5094615;28;20453;-78
2023/06/25 04:27:16;;;;;;;26.80;25.20;;;;;;;;;;5093374;28;20887;-80
2023/06/25 04:29:43;;;;;;;26.87;25.27;;;;;;;;;;5093904;28;20457;-79
2023/06/25 04:32:11;;;;;;;26.50;24.80;;;;;;;;;;5095670;28;21188;-79
2023/06/25 04:34:38;;;;;;;27.70;25.90;;;;;;;;;;5098058;28;20462;-79
2023/06/25 04:37:06;;;;;;;26.13;24.47;;;;;;;;;;5097616;28;20578;-79
2023/06/25 04:39:33;;;;;;;25.60;24.10;;;;;;;;;;5097825;28;20430;-80
2023/06/25 04:42:00;;;;;;;25.80;24.23;;;;;;;;;;5097846;28;20482;-78
2023/06/25 04:44:27;;;;;;;26.57;25.00;;;;;;;;;;5097914;28;20822;-79
2023/06/25 04:46:54;;;;;;;25.80;24.13;;;;;;;;;;5097164;28;20488;-79
2023/06/25 04:49:23;;;;;;;26.93;25.27;;;;;;;;;;5097602;28;20431;-79
2023/06/25 04:51:50;;;;;;;26.00;24.50;;;;;;;;;;5096765;28;20480;-79
2023/06/25 04:54:17;;;;;;;25.00;23.60;;;;;;;;;;5097670;28;20542;-80
2023/06/25 04:56:44;;;;;;;26.87;25.00;;;;;;;;;;5097096;28;20436;-80
2023/06/25 04:59:11;;;;;;;27.13;25.53;;;;;;;;;;5097715;28;20431;-79
2023/06/25 05:01:38;;;;;;;25.53;24.13;;;;;;;;;;5097678;28;20464;-80
2023/06/25 05:04:05;;;;;;;26.63;25.20;;;;;;;;;;5097875;28;20441;-79
2023/06/25 05:06:33;;;;;;;24.23;22.93;;;;;;;;;;5097223;28;20430;-79
2023/06/25 05:09:00;;;;;;;26.20;24.70;;;;;;;;;;5097675;28;20945;-81
2023/06/25 05:11:27;;;;;;;25.57;24.07;;;;;;;;;;5096985;28;20480;-79
2023/06/25 05:13:54;;;;;;;26.57;24.93;;;;;;;;;;5097157;28;20427;-80
2023/06/25 05:16:21;;;;;;;25.17;23.50;;;;;;;;;;5096855;28;20445;-79
2023/06/25 05:18:48;;;;;;;25.90;24.47;;;;;;;;;;5097606;28;20449;-80
2023/06/25 05:21:15;;;;;;;26.00;24.50;;;;;;;;;;5096448;28;20467;-79
2023/06/25 05:23:45;;;;;;;24.10;22.80;;;;;;;;;;5097542;28;20423;-80
2023/06/25 05:26:12;;;;;;;24.60;23.30;;;;;;;;;;5096686;28;20457;-79
2023/06/25 05:28:39;;;;;;;23.43;22.13;;;;;;;;;;5097070;28;20453;-79
2023/06/25 05:31:07;;;;;;;26.57;24.57;;;;;;;;;;5096455;28;20447;-79
2023/06/25 05:33:34;;;;;;;25.13;23.73;;;;;;;;;;5096952;28;20415;-79
2023/06/25 05:36:01;;;;;;;24.97;23.60;;;;;;;;;;5096488;28;20846;-79
2023/06/25 05:38:28;;;;;;;25.57;23.90;;;;;;;;;;5096954;28;20412;-79
2023/06/25 05:40:57;;;;;;;25.87;24.37;;;;;;;;;;5096188;28;20517;-79
2023/06/25 05:43:23;;;;;;;24.20;22.80;;;;;;;;;;5096135;28;20452;-79
2023/06/25 05:45:50;;;;;;;24.33;23.03;;;;;;;;;;5096822;28;20419;-79
2023/06/25 05:48:18;;;;;;;24.70;23.30;;;;;;;;;;5096186;28;20494;-80
2023/06/25 05:50:45;;;;;;;25.07;23.47;;;;;;;;;;5096636;28;20444;-79
2023/06/25 05:53:12;;;;;;;24.33;22.97;;;;;;;;;;5096518;28;20438;-79
2023/06/25 05:55:39;;;;;;;23.83;22.53;;;;;;;;;;5096358;28;21032;-79
2023/06/25 05:58:07;;;;;;;24.57;23.10;;;;;;;;;;5116222;28;20481;-80
2023/06/25 06:00:34;;;;;;;24.87;23.47;;;;;;;;;;5115549;28;20450;-79
2023/06/25 06:03:02;;;;;;;25.27;23.47;;;;;;;;;;5114685;28;20407;-80
2023/06/25 06:05:29;;;;;;;24.73;23.30;;;;;;;;;;5097581;28;20427;-82
2023/06/25 06:07:56;;;;;;;25.43;23.83;;;;;;;;;;5096623;28;20423;-86
2023/06/25 06:10:23;;;;;;;24.73;23.20;;;;;;;;;;5098750;28;20464;-84
2023/06/25 06:12:50;;;;;;;26.33;24.83;;;;;;;;;;5100162;28;20445;-89
2023/06/25 06:15:18;;;;;;;24.80;23.40;;;;;;;;;;5099853;28;20480;-86
2023/06/25 06:17:45;;;;;;;24.10;22.70;;;;;;;;;;5099164;28;20449;-84
2023/06/25 06:20:13;;;;;;;26.30;24.50;;;;;;;;;;5099113;28;20488;-85
2023/06/25 06:22:40;;;;;;;25.00;23.60;;;;;;;;;;5098893;28;20429;-84
2023/06/25 06:25:07;;;;;;;25.97;24.07;;;;;;;;;;5097997;28;20867;-83
2023/06/25 06:27:34;;;;;;;26.00;24.00;;;;;;;;;;5098076;28;20499;-84
2023/06/25 06:30:01;;;;;;;25.17;23.70;;;;;;;;;;5098471;28;20455;-85
2023/06/25 06:32:29;;;;;;;24.03;22.60;;;;;;;;;;5097301;28;20461;-85
2023/06/25 06:34:56;;;;;;;25.50;23.90;;;;;;;;;;5097577;28;20501;-83
2023/06/25 06:37:23;;;;;;;26.37;24.77;;;;;;;;;;5097023;28;20433;-84
2023/06/25 06:39:50;;;;;;;24.70;23.30;;;;;;;;;;5097452;28;20457;-85
2023/06/25 06:42:17;;;;;;;26.50;24.80;;;;;;;;;;5097139;28;20408;-84
2023/06/25 06:44:44;;;;;;;25.90;24.20;;;;;;;;;;5097792;28;20420;-85
2023/06/25 06:47:11;;;;;;;26.00;24.50;;;;;;;;;;5097535;28;20816;-84
2023/06/25 06:49:40;;;;;;;23.97;22.67;;;;;;;;;;5096804;28;20457;-84
2023/06/25 06:52:07;;;;;;;25.47;23.87;;;;;;;;;;5097016;28;20521;-84
2023/06/25 06:54:34;;;;;;;25.70;24.20;;;;;;;;;;5096598;28;20511;-84
2023/06/25 06:57:01;;;;;;;25.23;23.83;;;;;;;;;;5096192;28;20925;-84
2023/06/25 06:59:28;;;;;;;25.83;24.33;;;;;;;;;;5098023;28;20412;-85
2023/06/25 07:01:55;;;;;;;26.73;25.23;;;;;;;;;;5096769;28;20451;-85
2023/06/25 07:04:22;;;;;;;26.60;25.00;;;;;;;;;;5097772;28;20411;-85
2023/06/25 07:06:50;;;;;;;27.20;25.60;;;;;;;;;;5097654;28;20427;-87
2023/06/25 07:09:26;;;;;;;26.43;24.93;;;;;;;;;;5097950;28;20457;-83
2023/06/25 07:11:53;;;;;;;26.10;24.60;;;;;;;;;;5096699;28;20458;-84
2023/06/25 07:14:20;;;;;;;24.60;23.20;;;;;;;;;;5097159;28;20498;-84
2023/06/25 07:16:47;;;;;;;25.40;24.00;;;;;;;;;;5095322;28;20453;-86
2023/06/25 07:19:14;;;;;;;26.80;25.10;;;;;;;;;;5095221;28;20403;-85
2023/06/25 07:21:41;;;;;;;26.13;24.43;;;;;;;;;;5095090;28;20424;-83
2023/06/25 07:24:09;;;;;;;26.13;24.50;;;;;;;;;;5095174;28;20453;-84
2023/06/25 07:26:36;;;;;;;25.77;24.13;;;;;;;;;;5094837;28;20411;-84
2023/06/25 07:29:03;;;;;;;26.77;25.13;;;;;;;;;;5094054;28;20439;-85
2023/06/25 07:31:30;;;;;;;26.43;24.73;;;;;;;;;;5094443;28;20485;-83
2023/06/25 07:33:57;;;;;;;27.67;25.80;;;;;;;;;;5094595;28;20987;-83
2023/06/25 07:36:24;;;;;;;27.00;25.30;;;;;;;;;;5094359;28;20509;-84
2023/06/25 07:38:51;;;;;;;27.10;25.30;;;;;;;;;;5095121;28;20423;-83
2023/06/25 07:41:19;;;;;;;26.07;24.17;;;;;;;;;;5094496;28;20502;-85
2023/06/25 07:43:46;;;;;;;25.67;23.90;;;;;;;;;;5095020;28;20877;-84
2023/06/25 07:46:13;;;;;;;25.43;23.53;;;;;;;;;;5095159;28;20526;-83
2023/06/25 07:48:41;;;;;;;26.97;25.20;;;;;;;;;;5095161;28;20416;-84
2023/06/25 07:51:08;;;;;;;25.27;23.70;;;;;;;;;;5095233;28;20481;-84
2023/06/25 07:53:35;;;;;;;26.27;24.57;;;;;;;;;;5094682;28;20480;-86
2023/06/25 07:56:02;;;;;;;26.50;24.80;;;;;;;;;;5094127;28;20808;-84
2023/06/25 07:58:30;;;;;;;25.13;23.53;;;;;;;;;;5096085;28;20420;-86
2023/06/25 08:00:57;;;;;;;27.70;25.90;;;;;;;;;;5096287;28;20444;-84
2023/06/25 08:03:24;;;;;;;25.17;23.67;;;;;;;;;;5096101;28;20423;-85
2023/06/25 08:05:51;;;;;;;26.90;25.27;;;;;;;;;;5095429;28;20449;-85
2023/06/25 08:08:18;;;;;;;26.00;24.40;;;;;;;;;;5100289;28;20415;-85
2023/06/25 08:10:45;;;;;;;27.20;25.50;;;;;;;;;;5100612;28;20483;-85
2023/06/25 08:13:12;;;;;;;27.03;25.40;;;;;;;;;;5101244;28;20509;-85
2023/06/25 08:15:41;;;;;;;27.03;25.33;;;;;;;;;;5100230;28;20793;-85
2023/06/25 08:18:08;;;;;;;26.60;24.90;;;;;;;;;;5101048;28;20419;-83
2023/06/25 08:20:35;;;;;;;26.47;24.67;;;;;;;;;;5098598;28;20525;-84
2023/06/25 08:23:02;;;;;;;26.40;24.83;;;;;;;;;;5099037;28;20440;-84
2023/06/25 08:25:31;;;;;;;26.83;25.13;;;;;;;;;;5099250;28;20603;-84
2023/06/25 08:27:58;;;;;;;26.37;24.70;;;;;;;;;;5098966;28;20933;-84
2023/06/25 08:30:25;;;;;;;26.93;25.23;;;;;;;;;;5099201;28;20473;-84
2023/06/25 08:32:53;;;;;;;26.17;24.67;;;;;;;;;;5098791;28;20506;-86
2023/06/25 08:35:20;;;;;;;26.77;24.70;;;;;;;;;;5099447;28;20496;-84
2023/06/25 08:37:47;;;;;;;26.93;25.17;;;;;;;;;;5100914;28;20437;-85
2023/06/25 08:40:14;;;;;;;27.30;25.70;;;;;;;;;;5101236;28;21001;-85
2023/06/25 08:42:42;;;;;;;26.90;25.30;;;;;;;;;;5113351;28;20441;-84
2023/06/25 08:45:10;;;;;;;27.43;25.83;;;;;;;;;;5119695;28;20423;-84
2023/06/25 08:47:39;;;;;;;27.70;25.83;;;;;;;;;;5117682;28;20457;-84
2023/06/25 08:50:08;;;;;;;26.93;25.17;;;;;;;;;;5113436;28;20492;-84
2023/06/25 08:52:35;;;;;;;26.47;24.70;;;;;;;;;;5110435;28;20461;-83
2023/06/25 08:55:03;;;;;;;26.27;24.57;;;;;;;;;;5109670;28;20467;-83
2023/06/25 08:57:30;;;;;;;26.73;25.03;;;;;;;;;;5103473;28;20441;-86
2023/06/25 08:59:57;;;;;;;27.10;25.40;;;;;;;;;;5102954;28;20464;-86
2023/06/25 09:02:24;;;;;;;27.80;26.00;;;;;;;;;;5103679;28;20489;-82
2023/06/25 09:04:51;;;;;;;27.50;25.50;;;;;;;;;;5097650;28;20464;-81
2023/06/25 09:07:19;;;;;;;28.57;26.63;;;;;;;;;;5097033;28;20445;-81
2023/06/25 09:09:46;;;;;;;27.83;26.13;;;;;;;;;;5097068;28;20484;-81
2023/06/25 09:12:13;;;;;;;28.40;26.50;;;;;;;;;;5096852;28;20997;-81
2023/06/25 09:14:41;;;;;;;28.50;26.60;;;;;;;;;;5097311;28;20433;-81
2023/06/25 09:17:08;;;;;;;29.07;27.30;;;;;;;;;;5096924;28;20469;-81
2023/06/25 09:19:35;;;;;;;29.07;27.13;;;;;;;;;;5096189;28;20478;-80
2023/06/25 09:22:02;;;;;;;28.30;26.50;;;;;;;;;;5097406;28;20452;-82
2023/06/25 09:24:30;;;;;;;28.40;26.60;;;;;;;;;;5096583;28;20445;-77
2023/06/25 09:26:57;;;;;;;27.53;25.70;;;;;;;;;;5095408;28;20448;-78
2023/06/25 09:29:24;;;;;;;28.60;26.80;;;;;;;;;;5095793;28;20423;-77
2023/06/25 09:31:51;;;;;;;28.23;26.43;;;;;;;;;;5094660;28;20481;-78
2023/06/25 09:34:19;;;;;;;28.93;27.03;;;;;;;;;;5095370;28;20448;-77
2023/06/25 09:36:47;;;;;;;28.50;26.33;;;;;;;;;;5094577;28;20459;-75
2023/06/25 09:39:14;;;;;;;27.77;25.97;;;;;;;;;;5094196;28;20869;-75
2023/06/25 09:41:43;;;;;;;28.70;26.70;;;;;;;;;;5094180;28;20459;-75
2023/06/25 09:44:10;;;;;;;28.23;26.23;;;;;;;;;;5094409;28;20429;-77
2023/06/25 09:46:38;;;;;;;28.10;26.30;;;;;;;;;;5094933;28;20793;-78
2023/06/25 09:49:06;;;;;;;28.53;26.53;;;;;;;;;;5094839;28;20445;-78
2023/06/25 09:51:35;;;;;;;29.03;26.93;;;;;;;;;;5094208;28;20592;-78
2023/06/25 09:54:03;;;;;;;28.00;25.80;;;;;;;;;;5095591;28;20444;-76
2023/06/25 09:56:31;;;;;;;27.93;26.03;;;;;;;;;;5093839;28;20456;-76
2023/06/25 09:58:59;;;;;;;27.83;25.93;;;;;;;;;;5094280;28;20419;-77
2023/06/25 10:01:26;;;;;;;28.10;26.13;;;;;;;;;;5093202;28;20512;-76
2023/06/25 10:03:53;;;;;;;27.20;25.40;;;;;;;;;;5094306;28;20437;-78
2023/06/25 10:06:20;;;;;;;28.00;25.80;;;;;;;;;;5093652;28;20468;-78
2023/06/25 10:08:48;;;;;;;28.33;26.40;;;;;;;;;;5094198;28;20445;-77
2023/06/25 10:11:16;;;;;;;28.93;26.87;;;;;;;;;;5093777;28;20447;-76
2023/06/25 10:13:44;;;;;;;28.77;26.67;;;;;;;;;;5093973;28;20590;-77
2023/06/25 10:16:18;;;;;;;27.40;25.57;;;;;;;;;;5093119;28;20529;-76
2023/06/25 10:18:45;;;;;;;27.57;25.70;;;;;;;;;;5094892;28;20436;-78
2023/06/25 10:21:19;;;;;;;28.07;26.27;;;;;;;;;;5093836;28;20510;-77
2023/06/25 10:23:54;;;;;;;28.10;26.10;;;;;;;;;;5093582;28;20754;-78
2023/06/25 10:26:26;;;;;;;28.97;27.17;;;;;;;;;;5093457;28;20419;-76
2023/06/25 10:28:53;;;;;;;29.30;27.47;;;;;;;;;;5093859;28;20457;-77
2023/06/25 10:31:21;;;;;;;29.43;27.47;;;;;;;;;;5093621;28;20817;-77
2023/06/25 10:33:48;;;;;;;29.10;27.30;;;;;;;;;;5093936;28;20461;-77
2023/06/25 10:36:16;;;;;;;28.60;26.60;;;;;;;;;;5093171;28;20485;-77
2023/06/25 10:38:43;;;;;;;29.33;27.13;;;;;;;;;;5093658;28;21035;-77
2023/06/25 10:41:10;;;;;;;29.00;27.10;;;;;;;;;;5092874;28;20499;-76
2023/06/25 10:43:38;;;;;;;29.80;27.50;;;;;;;;;;5093388;28;20474;-79
2023/06/25 10:46:05;;;;;;;28.57;26.77;;;;;;;;;;5092607;28;20479;-76
2023/06/25 10:48:34;;;;;;;28.00;26.10;;;;;;;;;;5093485;28;20445;-76
2023/06/25 10:51:01;;;;;;;28.47;26.57;;;;;;;;;;5092719;28;21022;-77
2023/06/25 10:53:28;;;;;;;27.53;25.73;;;;;;;;;;5093242;28;20416;-77
2023/06/25 10:55:55;;;;;;;27.80;26.00;;;;;;;;;;5093135;28;20451;-84
2023/06/25 10:58:23;;;;;;;27.93;26.13;;;;;;;;;;5094654;28;20431;-83
2023/06/25 11:00:54;;;;;;;28.03;26.13;;;;;;;;;;5095684;28;20496;-85
2023/06/25 11:03:21;;;;;;;27.83;26.03;;;;;;;;;;5100964;28;20464;-82
2023/06/25 11:05:49;;;;;;;27.70;25.67;;;;;;;;;;5099038;28;20448;-87
2023/06/25 11:08:17;;;;;;;28.63;26.80;;;;;;;;;;5099583;28;20437;-90
2023/06/25 11:10:44;;;;;;;27.90;26.10;;;;;;;;;;5095590;28;20876;-81
2023/06/25 11:13:12;;;;;;;28.60;26.80;;;;;;;;;;5094806;28;20510;-80
2023/06/25 11:15:40;;;;;;;28.53;26.23;;;;;;;;;;5093380;28;20467;-79
2023/06/25 11:18:08;;;;;;;28.03;26.00;;;;;;;;;;5094422;28;20472;-79
2023/06/25 11:20:35;;;;;;;28.37;26.57;;;;;;;;;;5093977;28;20451;-79
2023/06/25 11:23:03;;;;;;;27.40;25.60;;;;;;;;;;5094887;28;20468;-80
2023/06/25 11:25:31;;;;;;;29.33;27.40;;;;;;;;;;5094140;28;20554;-80
2023/06/25 11:28:02;;;;;;;28.00;26.10;;;;;;;;;;5095611;28;20824;-80
2023/06/25 11:30:29;;;;;;;29.60;27.60;;;;;;;;;;5094278;28;20461;-80
2023/06/25 11:32:56;;;;;;;29.43;27.30;;;;;;;;;;5095108;28;20526;-79
2023/06/25 11:35:25;;;;;;;29.53;27.33;;;;;;;;;;5092692;28;20807;-80
2023/06/25 11:37:52;;;;;;;28.70;26.90;;;;;;;;;;5093611;28;20455;-80
2023/06/25 11:40:24;;;;;;;28.20;26.20;;;;;;;;;;5093783;28;20480;-80
2023/06/25 11:42:52;;;;;;;28.30;26.43;;;;;;;;;;5093491;28;21105;-81
2023/06/25 11:45:19;;;;;;;28.50;26.60;;;;;;;;;;5094359;28;20452;-81
2023/06/25 11:47:46;;;;;;;29.70;27.60;;;;;;;;;;5093972;28;20540;-81
2023/06/25 11:50:14;;;;;;;29.10;27.13;;;;;;;;;;5093729;28;20903;-80
2023/06/25 11:52:40;;;;;;;30.50;28.10;;;;;;;;;;5094612;28;20437;-79
2023/06/25 11:55:08;;;;;;;30.63;28.63;;;;;;;;;;5093794;28;20945;-80
2023/06/25 11:57:36;;;;;;;29.10;27.30;;;;;;;;;;5093553;28;20476;-80
2023/06/25 12:00:04;;;;;;;29.47;27.67;;;;;;;;;;5094042;28;20851;-80
2023/06/25 12:02:31;;;;;;;28.63;26.80;;;;;;;;;;5093731;28;20461;-80
2023/06/25 12:04:58;;;;;;;29.87;27.97;;;;;;;;;;5093632;28;20445;-80
2023/06/25 12:07:25;;;;;;;30.67;28.47;;;;;;;;;;5093053;28;20875;-79
2023/06/25 12:09:52;;;;;;;29.10;27.10;;;;;;;;;;5093629;28;20483;-79
2023/06/25 12:12:19;;;;;;;28.63;26.73;;;;;;;;;;5094051;28;20453;-81
2023/06/25 12:14:48;;;;;;;30.50;28.60;;;;;;;;;;5093888;28;20484;-80
2023/06/25 12:17:15;;;;;;;29.53;27.63;;;;;;;;;;5092655;28;20487;-80
2023/06/25 12:19:42;;;;;;;31.00;29.00;;;;;;;;;;5093435;28;20424;-79
2023/06/25 12:22:09;;;;;;;30.00;28.07;;;;;;;;;;5092971;28;20525;-80
2023/06/25 12:24:36;;;;;;;29.00;27.20;;;;;;;;;;5094058;28;20456;-81
2023/06/25 12:27:03;;;;;;;29.80;27.90;;;;;;;;;;5098332;28;20420;-80
2023/06/25 12:29:31;;;;;;;30.07;27.97;;;;;;;;;;5097385;28;20449;-78
2023/06/25 12:31:59;;;;;;;28.80;27.00;;;;;;;;;;5094635;28;20447;-79
2023/06/25 12:34:26;;;;;;;28.40;26.27;;;;;;;;;;5093934;28;20506;-79
2023/06/25 12:36:53;;;;;;;29.00;27.13;;;;;;;;;;5093084;28;20484;-79
2023/06/25 12:39:20;;;;;;;30.60;28.47;;;;;;;;;;5093489;28;20843;-80
2023/06/25 12:41:47;;;;;;;29.90;27.90;;;;;;;;;;5092582;28;20541;-80
2023/06/25 12:44:14;;;;;;;29.07;27.27;;;;;;;;;;5093277;28;20482;-79
2023/06/25 12:46:41;;;;;;;29.70;27.80;;;;;;;;;;5093030;28;20448;-79
2023/06/25 12:49:09;;;;;;;29.13;27.13;;;;;;;;;;5093432;28;20460;-79
2023/06/25 12:51:36;;;;;;;31.23;29.13;;;;;;;;;;5093209;28;20476;-79
2023/06/25 12:54:03;;;;;;;29.50;27.40;;;;;;;;;;5093394;28;20518;-78
2023/06/25 12:56:31;;;;;;;29.83;27.93;;;;;;;;;;5096251;28;20812;-79
2023/06/25 12:58:58;;;;;;;30.03;28.10;;;;;;;;;;5097161;28;20542;-78
2023/06/25 13:01:26;;;;;;;31.03;29.00;;;;;;;;;;5094967;28;20459;-79
2023/06/25 13:03:53;;;;;;;30.50;28.57;;;;;;;;;;5096655;28;20437;-80
2023/06/25 13:06:21;;;;;;;30.70;28.53;;;;;;;;;;5095922;28;20424;-78
2023/06/25 13:08:48;;;;;;;31.40;29.30;;;;;;;;;;5096242;28;20423;-79
2023/06/25 13:11:15;;;;;;;29.10;27.20;;;;;;;;;;5095365;28;20458;-79
2023/06/25 13:13:42;;;;;;;29.50;27.60;;;;;;;;;;5096855;28;20456;-79
2023/06/25 13:16:09;;;;;;;30.03;28.10;;;;;;;;;;5095325;28;20458;-80
2023/06/25 13:18:40;;;;;;;30.37;28.27;;;;;;;;;;5096931;28;20449;-80
2023/06/25 13:21:07;;;;;;;29.13;27.23;;;;;;;;;;5096980;28;20525;-79
2023/06/25 13:23:36;;;;;;;30.00;28.10;;;;;;;;;;5097176;28;20472;-80
2023/06/25 13:26:03;;;;;;;29.83;27.73;;;;;;;;;;5095413;28;20500;-80
2023/06/25 13:28:30;;;;;;;29.17;27.27;;;;;;;;;;5096511;28;20453;-79
2023/06/25 13:30:57;;;;;;;28.80;27.00;;;;;;;;;;5096503;28;20510;-79
2023/06/25 13:33:24;;;;;;;29.07;27.23;;;;;;;;;;5096747;28;20423;-79
2023/06/25 13:35:51;;;;;;;29.47;27.30;;;;;;;;;;5096308;28;20423;-79
2023/06/25 13:38:17;;;;;;;29.80;27.80;;;;;;;;;;5096513;28;20444;-79
2023/06/25 13:40:46;;;;;;;28.77;26.67;;;;;;;;;;5096747;28;20847;-80
2023/06/25 13:43:13;;;;;;;28.30;26.50;;;;;;;;;;5096569;28;20464;-79
2023/06/25 13:45:40;;;;;;;28.97;26.90;;;;;;;;;;5096166;28;20981;-81
2023/06/25 13:48:07;;;;;;;29.20;27.10;;;;;;;;;;5096817;28;20427;-78
2023/06/25 13:50:34;;;;;;;28.00;26.10;;;;;;;;;;5095581;28;20451;-78
2023/06/25 13:53:01;;;;;;;29.13;27.23;;;;;;;;;;5096333;28;20819;-81
2023/06/25 13:55:29;;;;;;;28.17;26.37;;;;;;;;;;5095968;28;20427;-79
2023/06/25 13:57:57;;;;;;;28.07;26.37;;;;;;;;;;5095764;28;20481;-80
2023/06/25 14:00:25;;;;;;;29.50;27.20;;;;;;;;;;5095908;28;20484;-79
2023/06/25 14:02:52;;;;;;;28.87;27.07;;;;;;;;;;5096169;28;20445;-78
2023/06/25 14:05:19;;;;;;;28.90;27.00;;;;;;;;;;5095330;28;20994;-79
2023/06/25 14:07:46;;;;;;;29.10;27.20;;;;;;;;;;5095747;28;20441;-81
2023/06/25 14:10:13;;;;;;;28.93;26.83;;;;;;;;;;5098485;28;20485;-81
2023/06/25 14:12:40;;;;;;;29.20;27.30;;;;;;;;;;5098659;28;20449;-82
2023/06/25 14:15:09;;;;;;;29.37;27.47;;;;;;;;;;5098983;28;20427;-82
2023/06/25 14:17:36;;;;;;;27.87;26.07;;;;;;;;;;5097880;28;20967;-82